• Join FlightAware (Why Join?)
  • Login
  • US Flag 
12:20PM EDT


 

Airport Tracker/Info


-or-


 

Live Flight TrackerFlight Track Log ✈ ASQ4576 ✈ 22-May-2013 ✈ KEWR - KGRR

Flight Track Log - Related Links

Times and Time Zones

All times are in EDT time to prevent confusion due to time zone crossing. See the ASQ4576 flight status page for this flight to view local times or setup timezone preferences in your user account.

Time Position Orientation Groundspeed Altitude Reporting Facility
EDT Latitude Longitude Course Direction KTS MPH feet Rate Location/Type
04:46PM 40.6667 -74.1833 North 170 196 1,200  Level New York TRACON
04:47PM 40.6333 -74.2333 229° Southwest 226 260 2,900 2,160 Climbing New York TRACON
04:48PM 40.6667 -74.3000 303° West 256 295 5,600 2,700 Climbing New York TRACON
04:49PM 40.7167 -74.3667 315° West 272 313 8,300 1,740 Climbing New York TRACON
04:50PM 40.9804 -74.5109 319° Northwest  Level FlightAware Approximate
04:50PM 40.7833 -74.4167 330° Northwest 276 318 9,100  Level New York TRACON
04:51PM 41.0528 -74.6012 316° Northwest  Level FlightAware Approximate
04:51PM 40.8500 -74.4667 330° Northwest 276 318 9,100  Level New York TRACON
04:52PM 41.1271 -74.6833 North  Level FlightAware Approximate
04:52PM 40.8842 -74.4956 327° Northwest 273 314 9,000  Level New York Center
04:53PM 40.9569 -74.4969 359° North 291 335 9,000 240 Level New York Center
04:54PM 41.0331 -74.4625 19° North 308 354 9,500 960 Climbing New York Center
04:55PM 41.1097 -74.4117 27° Northeast 343 395 11,000 1,500 Climbing New York Center
04:56PM 41.1789 -74.4594 333° Northwest 312 359 12,600 1,740 Climbing New York Center
04:57PM 41.1603 -74.5908 259° West 272 313 14,400 1,560 Climbing New York Center
04:58PM 41.1483 -74.7031 262° West 314 361 15,800 1,560 Climbing New York Center
04:59PM 41.1958 -74.8353 296° West 342 394 17,600 1,560 Climbing New York Center
05:00PM 41.2481 -74.9517 301° West 359 413 19,000 1,260 Climbing New York Center
05:01PM 41.3019 -75.0736 300° West 371 427 20,200 1,140 Climbing New York Center
05:02PM 41.3517 -75.1956 299° West 377 434 21,300 1,200 Climbing New York Center
05:03PM 41.4053 -75.3181 300° West 383 441 22,700 1,320 Climbing New York Center
05:04PM 41.4589 -75.4408 300° West 383 441 24,000 1,260 Climbing New York Center
05:05PM 41.5017 -75.5683 294° West 383 441 25,200 960 Climbing New York Center
05:06PM 41.5397 -75.7042 291° West 385 443 26,000 900 Climbing New York Center
05:07PM 41.5775 -75.8428 290° West 391 450 27,000 960 Climbing New York Center
05:08PM 41.6175 -75.9792 291° West 398 458 28,000 960 Climbing New York Center
05:09PM 41.6572 -76.1183 291° West 398 458 29,000 960 Climbing New York Center
05:10PM 41.6950 -76.2464 292° West 398 458 30,000 480 Climbing New York Center
05:11PM 41.7342 -76.3911 290° West 405 466 30,000  Level New York Center
05:12PM 41.7783 -76.5564 290° West 413 475 30,000  Level New York Center
05:12PM 41.8031 -76.6497 290° West 427 491 30,000  Level Cleveland Center
05:13PM 41.8408 -76.7811 291° West 448 516 30,000 240 Level Cleveland Center
05:14PM 41.8833 -76.9347 290° West 448 516 30,500 660 Climbing Cleveland Center
05:15PM 41.9233 -77.0833 290° West 437 503 31,400 720 Climbing Cleveland Center
05:16PM 41.9633 -77.2319 290° West 432 497 32,000 300 Climbing Cleveland Center
05:17PM 42.0050 -77.3836 290° West 432 497 32,000  Level Cleveland Center
05:18PM 42.0447 -77.5408 289° West 432 497 32,000  Level Cleveland Center
05:19PM 42.0883 -77.6956 291° West 439 505 32,000  Level Cleveland Center
05:20PM 42.1297 -77.8533 290° West 439 505 32,000  Level Cleveland Center
05:21PM 42.1708 -78.0083 290° West 439 505 32,000  Level Cleveland Center
05:22PM 42.2119 -78.1667 289° West 439 505 32,000  Level Cleveland Center
05:23PM 42.2506 -78.3222 289° West 439 505 32,000  Level Cleveland Center
05:24PM 42.2931 -78.4781 290° West 439 505 32,000  Level Cleveland Center
05:25PM 42.3314 -78.6394 288° West 439 505 32,000  Level Cleveland Center
05:26PM 42.3733 -78.7928 290° West 439 505 32,000  Level Cleveland Center
05:27PM 42.4133 -78.9661 287° West 439 505 32,000  Level Cleveland Center
05:28PM 42.4553 -79.1256 290° West 439 505 32,000  Level Cleveland Center
05:29PM 42.4881 -79.2683 287° West 444 511 32,000  Level Cleveland Center
05:30PM 42.4983 -79.4342 275° West 439 505 32,000  Level Cleveland Center
05:31PM 42.5103 -79.5944 276° West 434 499 32,000  Level Cleveland Center
05:32PM 42.5156 -79.7550 273° West 434 499 32,000  Level Cleveland Center
05:33PM 42.5250 -79.9183 275° West 434 499 32,000  Level Cleveland Center
05:34PM 42.5300 -80.0817 272° West 434 499 32,000  Level Cleveland Center
05:35PM 42.5369 -80.2422 273° West 439 505 32,000  Level Cleveland Center
05:36PM 42.5414 -80.4056 272° West 439 505 32,000  Level Cleveland Center
05:37PM 42.5478 -80.5606 273° West 439 505 32,000  Level Cleveland Center
05:38PM 42.5561 -80.7183 274° West 427 491 32,000  Level Cleveland Center
05:39PM 42.5619 -80.8792 273° West 416 479 32,000  Level Cleveland Center
05:40PM 42.5656 -81.0314 272° West 421 484 32,000  Level Cleveland Center
05:41PM 42.5711 -81.2064 273° West 421 484 32,000  Level Cleveland Center
05:42PM 42.5825 -81.3614 276° West 421 484 32,000  Level Cleveland Center
05:43PM 42.5939 -81.5139 276° West 421 484 32,000  Level Cleveland Center
05:44PM 42.6092 -81.6719 278° West 430 495 32,000  Level Cleveland Center
05:45PM 42.6222 -81.8275 277° West 425 489 32,000  Level Cleveland Center
05:46PM 42.6372 -81.9831 278° West 425 489 32,000  Level Cleveland Center
05:47PM 42.6497 -82.1442 276° West 425 489 32,000  Level Cleveland Center
05:48PM 42.6619 -82.2997 276° West 425 489 32,000 -420 Level Cleveland Center
05:49PM 42.6742 -82.4583 276° West 425 489 31,200 -900 Descending Cleveland Center
05:50PM 42.6881 -82.6169 277° West 425 489 30,200 -1,020 Descending Cleveland Center
05:51PM 42.6997 -82.7783 276° West 425 489 29,200 -1,200 Descending Cleveland Center
05:52PM 42.7111 -82.9397 276° West 425 489 27,900 -1,440 Descending Cleveland Center
05:53PM 42.7244 -83.1014 276° West 425 489 26,400 -1,380 Descending Cleveland Center
05:54PM 42.7353 -83.2631 275° West 425 489 25,200 -960 Descending Cleveland Center
05:55PM 42.7175 -83.4036 260° West 404 465 24,500 -660 Descending Cleveland Center
05:56PM 42.6975 -83.5383 259° West 384 442 23,900 -720 Descending Cleveland Center
05:57PM 42.6750 -83.6783 258° West 379 436 23,100 -900 Descending Cleveland Center
05:58PM 42.6544 -83.8158 259° West 379 436 22,100 -720 Descending Cleveland Center
05:59PM 42.7158 -83.9350 305° West 347 399 21,700 -660 Descending Cleveland Center
06:00PM 42.8264 -84.0031 336° Northwest 362 417 20,800 -900 Descending Cleveland Center
06:01PM 42.9325 -84.0769 333° Northwest 393 452 20,000 -1,020 Descending Cleveland Center
06:02PM 43.0192 -84.1700 322° Northwest 406 467 18,800 -1,800 Descending Cleveland Center
06:03PM 43.0361 -84.2258 293° West 395 455 17,500 -2,880 Descending Chicago Center
06:04PM 43.0406 -84.3592 273° West 359 413 14,600 -2,640 Descending Chicago Center
06:05PM 43.0264 -84.4872 261° West 341 392 12,100 -1,980 Descending Chicago Center
06:06PM 43.0108 -84.6011 259° West 311 358 10,600 -1,560 Descending Chicago Center
06:07PM 42.9969 -84.7014 259° West 276 318 8,900 -1,320 Descending Chicago Center
06:08PM 42.9683 -84.8097 250° West 258 297 7,900 -840 Descending Chicago Center
06:09PM 42.9439 -84.8958 249° West 247 284 7,200 -720 Descending Chicago Center
06:10PM 42.9383 -84.9861 265° West 243 280 6,500 -780 Descending Chicago Center
06:11PM 42.9286 -85.0744 261° West 237 273 5,600 -900 Descending Chicago Center
06:12PM 42.9192 -85.1633 262° West 237 273 4,700 -840 Descending Chicago Center
06:13PM 42.9097 -85.2503 262° West 234 269 3,900 -840 Descending Chicago Center
06:14PM 42.8981 -85.3478 261° West 222 255 3,000 -900 Descending Chicago Center